sensor_id;sensor_type;location;lat;lon;timestamp;P1;durP1;ratioP1;P2;durP2;ratioP2
5147;SDS011;2592;48.140;7.614;2023-04-08T00:00:02;7.23;;;4.60;;
5147;SDS011;2592;48.140;7.614;2023-04-08T00:02:30;5.63;;;5.10;;
5147;SDS011;2592;48.140;7.614;2023-04-08T00:04:58;10.13;;;6.40;;
5147;SDS011;2592;48.140;7.614;2023-04-08T00:07:24;5.50;;;4.40;;
5147;SDS011;2592;48.140;7.614;2023-04-08T00:09:51;4.77;;;4.37;;
5147;SDS011;2592;48.140;7.614;2023-04-08T00:12:18;4.53;;;3.73;;
5147;SDS011;2592;48.140;7.614;2023-04-08T00:14:44;4.40;;;4.00;;
5147;SDS011;2592;48.140;7.614;2023-04-08T00:17:11;4.20;;;3.80;;
5147;SDS011;2592;48.140;7.614;2023-04-08T00:19:37;5.17;;;4.53;;
5147;SDS011;2592;48.140;7.614;2023-04-08T00:22:05;4.20;;;3.80;;
5147;SDS011;2592;48.140;7.614;2023-04-08T00:24:31;4.53;;;4.13;;
5147;SDS011;2592;48.140;7.614;2023-04-08T00:26:57;5.10;;;4.27;;
5147;SDS011;2592;48.140;7.614;2023-04-08T00:29:24;3.80;;;3.50;;
5147;SDS011;2592;48.140;7.614;2023-04-08T00:31:51;4.00;;;3.70;;
5147;SDS011;2592;48.140;7.614;2023-04-08T00:34:17;5.63;;;3.87;;
5147;SDS011;2592;48.140;7.614;2023-04-08T00:36:44;4.10;;;3.70;;
5147;SDS011;2592;48.140;7.614;2023-04-08T00:39:12;4.67;;;4.20;;
5147;SDS011;2592;48.140;7.614;2023-04-08T00:41:38;6.53;;;4.40;;
5147;SDS011;2592;48.140;7.614;2023-04-08T00:44:05;4.47;;;4.07;;
5147;SDS011;2592;48.140;7.614;2023-04-08T00:46:32;4.00;;;3.60;;
5147;SDS011;2592;48.140;7.614;2023-04-08T00:49:01;3.80;;;3.40;;
5147;SDS011;2592;48.140;7.614;2023-04-08T00:51:27;5.50;;;4.30;;
5147;SDS011;2592;48.140;7.614;2023-04-08T00:53:55;5.37;;;3.80;;
5147;SDS011;2592;48.140;7.614;2023-04-08T00:56:23;4.63;;;4.23;;
5147;SDS011;2592;48.140;7.614;2023-04-08T00:58:50;5.53;;;4.00;;
5147;SDS011;2592;48.140;7.614;2023-04-08T01:01:20;7.30;;;4.70;;
5147;SDS011;2592;48.140;7.614;2023-04-08T01:03:49;4.50;;;3.80;;
5147;SDS011;2592;48.140;7.614;2023-04-08T01:06:22;5.20;;;3.97;;
5147;SDS011;2592;48.140;7.614;2023-04-08T01:08:51;5.00;;;4.50;;
5147;SDS011;2592;48.140;7.614;2023-04-08T01:11:17;5.43;;;4.27;;
5147;SDS011;2592;48.140;7.614;2023-04-08T01:13:45;5.67;;;4.37;;
5147;SDS011;2592;48.140;7.614;2023-04-08T01:16:13;7.80;;;4.47;;
5147;SDS011;2592;48.140;7.614;2023-04-08T01:18:40;5.37;;;4.73;;
5147;SDS011;2592;48.140;7.614;2023-04-08T01:21:07;5.00;;;4.60;;
5147;SDS011;2592;48.140;7.614;2023-04-08T01:23:36;5.73;;;5.17;;
5147;SDS011;2592;48.140;7.614;2023-04-08T01:26:05;4.73;;;3.97;;
5147;SDS011;2592;48.140;7.614;2023-04-08T01:28:32;6.83;;;5.57;;
5147;SDS011;2592;48.140;7.614;2023-04-08T01:30:59;5.33;;;4.70;;
5147;SDS011;2592;48.140;7.614;2023-04-08T01:33:26;5.33;;;4.83;;
5147;SDS011;2592;48.140;7.614;2023-04-08T01:35:52;4.80;;;4.40;;
5147;SDS011;2592;48.140;7.614;2023-04-08T01:38:19;7.67;;;5.60;;
5147;SDS011;2592;48.140;7.614;2023-04-08T01:40:46;5.20;;;4.70;;
5147;SDS011;2592;48.140;7.614;2023-04-08T01:43:15;6.03;;;5.43;;
5147;SDS011;2592;48.140;7.614;2023-04-08T01:45:42;5.43;;;4.93;;
5147;SDS011;2592;48.140;7.614;2023-04-08T01:48:09;10.50;;;8.57;;
5147;SDS011;2592;48.140;7.614;2023-04-08T01:50:36;21.50;;;17.90;;
5147;SDS011;2592;48.140;7.614;2023-04-08T01:53:02;25.10;;;20.43;;
5147;SDS011;2592;48.140;7.614;2023-04-08T01:55:29;14.07;;;12.67;;
5147;SDS011;2592;48.140;7.614;2023-04-08T01:57:58;12.47;;;11.17;;
5147;SDS011;2592;48.140;7.614;2023-04-08T02:00:27;11.80;;;10.00;;
5147;SDS011;2592;48.140;7.614;2023-04-08T02:02:53;11.30;;;9.97;;
5147;SDS011;2592;48.140;7.614;2023-04-08T02:05:20;10.53;;;9.03;;
5147;SDS011;2592;48.140;7.614;2023-04-08T02:07:47;9.90;;;8.70;;
5147;SDS011;2592;48.140;7.614;2023-04-08T02:10:13;9.83;;;8.27;;
5147;SDS011;2592;48.140;7.614;2023-04-08T02:12:39;11.43;;;7.40;;
5147;SDS011;2592;48.140;7.614;2023-04-08T02:15:06;6.10;;;5.50;;
5147;SDS011;2592;48.140;7.614;2023-04-08T02:17:36;6.30;;;4.70;;
5147;SDS011;2592;48.140;7.614;2023-04-08T02:20:05;5.10;;;4.60;;
5147;SDS011;2592;48.140;7.614;2023-04-08T02:22:36;6.10;;;5.50;;
5147;SDS011;2592;48.140;7.614;2023-04-08T02:25:04;5.30;;;4.60;;
5147;SDS011;2592;48.140;7.614;2023-04-08T02:27:33;7.50;;;5.97;;
5147;SDS011;2592;48.140;7.614;2023-04-08T02:30:01;10.43;;;6.40;;
5147;SDS011;2592;48.140;7.614;2023-04-08T02:32:28;8.40;;;6.50;;
5147;SDS011;2592;48.140;7.614;2023-04-08T02:34:57;12.77;;;7.57;;
5147;SDS011;2592;48.140;7.614;2023-04-08T02:37:24;8.67;;;6.80;;
5147;SDS011;2592;48.140;7.614;2023-04-08T02:39:51;8.00;;;6.37;;
5147;SDS011;2592;48.140;7.614;2023-04-08T02:42:17;6.97;;;6.27;;
5147;SDS011;2592;48.140;7.614;2023-04-08T02:44:43;6.10;;;5.50;;
5147;SDS011;2592;48.140;7.614;2023-04-08T02:47:10;6.33;;;5.33;;
5147;SDS011;2592;48.140;7.614;2023-04-08T02:49:36;5.93;;;5.30;;
5147;SDS011;2592;48.140;7.614;2023-04-08T02:52:04;7.47;;;6.67;;
5147;SDS011;2592;48.140;7.614;2023-04-08T02:54:30;5.60;;;5.10;;
5147;SDS011;2592;48.140;7.614;2023-04-08T02:56:57;6.37;;;5.77;;
5147;SDS011;2592;48.140;7.614;2023-04-08T02:59:23;15.70;;;6.30;;
5147;SDS011;2592;48.140;7.614;2023-04-08T03:01:49;5.30;;;4.77;;
5147;SDS011;2592;48.140;7.614;2023-04-08T03:04:16;5.93;;;5.43;;
5147;SDS011;2592;48.140;7.614;2023-04-08T03:06:42;6.20;;;5.00;;
5147;SDS011;2592;48.140;7.614;2023-04-08T03:09:10;6.83;;;4.97;;
5147;SDS011;2592;48.140;7.614;2023-04-08T03:11:36;4.87;;;4.47;;
5147;SDS011;2592;48.140;7.614;2023-04-08T03:14:03;5.47;;;4.90;;
5147;SDS011;2592;48.140;7.614;2023-04-08T03:16:29;5.30;;;4.80;;
5147;SDS011;2592;48.140;7.614;2023-04-08T03:18:56;7.33;;;5.10;;
5147;SDS011;2592;48.140;7.614;2023-04-08T03:21:22;6.07;;;5.47;;
5147;SDS011;2592;48.140;7.614;2023-04-08T03:23:48;5.13;;;4.70;;
5147;SDS011;2592;48.140;7.614;2023-04-08T03:26:16;5.90;;;4.47;;
5147;SDS011;2592;48.140;7.614;2023-04-08T03:28:43;4.93;;;4.40;;
5147;SDS011;2592;48.140;7.614;2023-04-08T03:31:09;5.97;;;5.07;;
5147;SDS011;2592;48.140;7.614;2023-04-08T03:33:35;4.53;;;4.13;;
5147;SDS011;2592;48.140;7.614;2023-04-08T03:36:02;5.47;;;4.97;;
5147;SDS011;2592;48.140;7.614;2023-04-08T03:38:28;6.20;;;4.70;;
5147;SDS011;2592;48.140;7.614;2023-04-08T03:40:55;4.87;;;4.40;;
5147;SDS011;2592;48.140;7.614;2023-04-08T03:43:22;5.77;;;5.00;;
5147;SDS011;2592;48.140;7.614;2023-04-08T03:45:49;5.70;;;5.20;;
5147;SDS011;2592;48.140;7.614;2023-04-08T03:48:16;5.80;;;4.90;;
5147;SDS011;2592;48.140;7.614;2023-04-08T03:50:42;5.93;;;5.33;;
5147;SDS011;2592;48.140;7.614;2023-04-08T03:53:08;5.53;;;5.00;;
5147;SDS011;2592;48.140;7.614;2023-04-08T03:55:37;5.40;;;4.73;;
5147;SDS011;2592;48.140;7.614;2023-04-08T03:58:03;7.37;;;5.60;;
5147;SDS011;2592;48.140;7.614;2023-04-08T04:00:31;6.87;;;5.73;;
5147;SDS011;2592;48.140;7.614;2023-04-08T04:02:57;8.60;;;5.93;;
5147;SDS011;2592;48.140;7.614;2023-04-08T04:05:23;6.63;;;5.90;;
5147;SDS011;2592;48.140;7.614;2023-04-08T04:07:50;6.63;;;5.87;;
5147;SDS011;2592;48.140;7.614;2023-04-08T04:10:16;6.63;;;6.03;;
5147;SDS011;2592;48.140;7.614;2023-04-08T04:12:42;6.43;;;5.77;;
5147;SDS011;2592;48.140;7.614;2023-04-08T04:15:10;6.57;;;5.93;;
5147;SDS011;2592;48.140;7.614;2023-04-08T04:17:38;6.40;;;5.80;;
5147;SDS011;2592;48.140;7.614;2023-04-08T04:20:05;7.67;;;6.90;;
5147;SDS011;2592;48.140;7.614;2023-04-08T04:22:31;6.50;;;5.90;;
5147;SDS011;2592;48.140;7.614;2023-04-08T04:24:58;7.43;;;6.50;;
5147;SDS011;2592;48.140;7.614;2023-04-08T04:27:24;6.20;;;5.70;;
5147;SDS011;2592;48.140;7.614;2023-04-08T04:29:50;6.53;;;5.93;;
5147;SDS011;2592;48.140;7.614;2023-04-08T04:32:17;7.40;;;6.70;;
5147;SDS011;2592;48.140;7.614;2023-04-08T04:34:45;6.90;;;6.30;;
5147;SDS011;2592;48.140;7.614;2023-04-08T04:37:12;6.30;;;5.70;;
5147;SDS011;2592;48.140;7.614;2023-04-08T04:39:38;7.43;;;5.90;;
5147;SDS011;2592;48.140;7.614;2023-04-08T04:42:05;9.17;;;6.10;;
5147;SDS011;2592;48.140;7.614;2023-04-08T04:44:31;7.30;;;6.60;;
5147;SDS011;2592;48.140;7.614;2023-04-08T04:46:58;8.67;;;7.20;;
5147;SDS011;2592;48.140;7.614;2023-04-08T04:49:24;7.80;;;6.90;;
5147;SDS011;2592;48.140;7.614;2023-04-08T04:51:52;6.90;;;6.20;;
5147;SDS011;2592;48.140;7.614;2023-04-08T04:54:18;7.10;;;6.40;;
5147;SDS011;2592;48.140;7.614;2023-04-08T04:56:45;7.20;;;6.50;;
5147;SDS011;2592;48.140;7.614;2023-04-08T04:59:11;7.10;;;6.40;;
5147;SDS011;2592;48.140;7.614;2023-04-08T05:01:38;7.20;;;6.50;;
5147;SDS011;2592;48.140;7.614;2023-04-08T05:04:05;6.17;;;5.50;;
5147;SDS011;2592;48.140;7.614;2023-04-08T05:06:31;9.63;;;5.77;;
5147;SDS011;2592;48.140;7.614;2023-04-08T05:08:59;9.07;;;6.47;;
5147;SDS011;2592;48.140;7.614;2023-04-08T05:11:25;6.07;;;5.47;;
5147;SDS011;2592;48.140;7.614;2023-04-08T05:13:52;8.10;;;6.57;;
5147;SDS011;2592;48.140;7.614;2023-04-08T05:16:18;6.93;;;5.50;;
5147;SDS011;2592;48.140;7.614;2023-04-08T05:18:44;10.40;;;9.40;;
5147;SDS011;2592;48.140;7.614;2023-04-08T05:21:11;6.87;;;5.93;;
5147;SDS011;2592;48.140;7.614;2023-04-08T05:23:37;7.20;;;6.50;;
5147;SDS011;2592;48.140;7.614;2023-04-08T05:26:07;12.40;;;10.53;;
5147;SDS011;2592;48.140;7.614;2023-04-08T05:28:33;11.40;;;10.23;;
5147;SDS011;2592;48.140;7.614;2023-04-08T05:31:00;9.80;;;7.40;;
5147;SDS011;2592;48.140;7.614;2023-04-08T05:33:26;12.10;;;7.23;;
5147;SDS011;2592;48.140;7.614;2023-04-08T05:35:52;16.40;;;14.63;;
5147;SDS011;2592;48.140;7.614;2023-04-08T05:38:19;11.83;;;10.63;;
5147;SDS011;2592;48.140;7.614;2023-04-08T05:40:45;8.20;;;7.50;;
5147;SDS011;2592;48.140;7.614;2023-04-08T05:43:13;9.83;;;8.83;;
5147;SDS011;2592;48.140;7.614;2023-04-08T05:45:39;8.97;;;8.07;;
5147;SDS011;2592;48.140;7.614;2023-04-08T05:48:06;10.47;;;8.93;;
5147;SDS011;2592;48.140;7.614;2023-04-08T05:50:33;13.53;;;12.13;;
5147;SDS011;2592;48.140;7.614;2023-04-08T05:53:00;9.53;;;8.50;;
5147;SDS011;2592;48.140;7.614;2023-04-08T05:55:26;9.20;;;7.70;;
5147;SDS011;2592;48.140;7.614;2023-04-08T05:57:52;11.67;;;8.10;;
5147;SDS011;2592;48.140;7.614;2023-04-08T06:00:20;32.63;;;26.70;;
5147;SDS011;2592;48.140;7.614;2023-04-08T06:02:47;14.27;;;12.43;;
5147;SDS011;2592;48.140;7.614;2023-04-08T06:05:13;12.27;;;10.77;;
5147;SDS011;2592;48.140;7.614;2023-04-08T06:07:39;9.63;;;8.47;;
5147;SDS011;2592;48.140;7.614;2023-04-08T06:10:06;10.30;;;9.33;;
5147;SDS011;2592;48.140;7.614;2023-04-08T06:12:34;10.30;;;9.40;;
5147;SDS011;2592;48.140;7.614;2023-04-08T06:15:00;56.93;;;37.97;;
5147;SDS011;2592;48.140;7.614;2023-04-08T06:17:28;19.83;;;15.93;;
5147;SDS011;2592;48.140;7.614;2023-04-08T06:19:54;89.50;;;54.60;;
5147;SDS011;2592;48.140;7.614;2023-04-08T06:22:21;53.27;;;34.07;;
5147;SDS011;2592;48.140;7.614;2023-04-08T06:24:47;29.20;;;22.00;;
5147;SDS011;2592;48.140;7.614;2023-04-08T06:27:13;16.40;;;14.47;;
5147;SDS011;2592;48.140;7.614;2023-04-08T06:29:40;13.23;;;11.07;;
5147;SDS011;2592;48.140;7.614;2023-04-08T06:32:06;26.83;;;18.77;;
5147;SDS011;2592;48.140;7.614;2023-04-08T06:34:34;16.97;;;15.03;;
5147;SDS011;2592;48.140;7.614;2023-04-08T06:37:00;19.17;;;16.33;;
5147;SDS011;2592;48.140;7.614;2023-04-08T06:39:27;14.00;;;11.60;;
5147;SDS011;2592;48.140;7.614;2023-04-08T06:41:53;10.50;;;9.40;;
5147;SDS011;2592;48.140;7.614;2023-04-08T06:44:20;10.80;;;9.10;;
5147;SDS011;2592;48.140;7.614;2023-04-08T06:46:46;16.80;;;15.10;;
5147;SDS011;2592;48.140;7.614;2023-04-08T06:49:12;10.40;;;9.40;;
5147;SDS011;2592;48.140;7.614;2023-04-08T06:51:41;9.43;;;8.47;;
5147;SDS011;2592;48.140;7.614;2023-04-08T06:54:07;9.97;;;8.93;;
5147;SDS011;2592;48.140;7.614;2023-04-08T06:56:35;10.83;;;8.30;;
5147;SDS011;2592;48.140;7.614;2023-04-08T06:59:01;11.10;;;9.73;;
5147;SDS011;2592;48.140;7.614;2023-04-08T07:01:28;13.00;;;9.20;;
5147;SDS011;2592;48.140;7.614;2023-04-08T07:03:55;11.00;;;9.07;;
5147;SDS011;2592;48.140;7.614;2023-04-08T07:06:21;12.93;;;9.00;;
5147;SDS011;2592;48.140;7.614;2023-04-08T07:08:49;15.10;;;9.33;;
5147;SDS011;2592;48.140;7.614;2023-04-08T07:11:15;11.80;;;9.30;;
5147;SDS011;2592;48.140;7.614;2023-04-08T07:13:42;11.90;;;9.27;;
5147;SDS011;2592;48.140;7.614;2023-04-08T07:16:08;9.67;;;8.37;;
5147;SDS011;2592;48.140;7.614;2023-04-08T07:18:35;12.90;;;9.20;;
5147;SDS011;2592;48.140;7.614;2023-04-08T07:21:02;47.93;;;27.93;;
5147;SDS011;2592;48.140;7.614;2023-04-08T07:23:28;27.07;;;17.20;;
5147;SDS011;2592;48.140;7.614;2023-04-08T07:26:00;23.30;;;13.47;;
5147;SDS011;2592;48.140;7.614;2023-04-08T07:28:26;15.97;;;11.13;;
5147;SDS011;2592;48.140;7.614;2023-04-08T07:30:53;12.67;;;10.20;;
5147;SDS011;2592;48.140;7.614;2023-04-08T07:33:19;12.27;;;8.47;;
5147;SDS011;2592;48.140;7.614;2023-04-08T07:35:45;11.70;;;10.50;;
5147;SDS011;2592;48.140;7.614;2023-04-08T07:38:12;11.33;;;7.60;;
5147;SDS011;2592;48.140;7.614;2023-04-08T07:40:38;11.90;;;10.70;;
5147;SDS011;2592;48.140;7.614;2023-04-08T07:43:06;10.60;;;9.50;;
5147;SDS011;2592;48.140;7.614;2023-04-08T07:45:34;12.43;;;10.37;;
5147;SDS011;2592;48.140;7.614;2023-04-08T07:48:00;12.63;;;11.30;;
5147;SDS011;2592;48.140;7.614;2023-04-08T07:50:26;10.80;;;9.70;;
5147;SDS011;2592;48.140;7.614;2023-04-08T07:52:53;13.30;;;10.03;;
5147;SDS011;2592;48.140;7.614;2023-04-08T07:55:19;12.93;;;9.70;;
5147;SDS011;2592;48.140;7.614;2023-04-08T07:57:46;10.40;;;9.23;;
5147;SDS011;2592;48.140;7.614;2023-04-08T08:00:14;13.60;;;10.70;;
5147;SDS011;2592;48.140;7.614;2023-04-08T08:02:45;10.33;;;9.33;;
5147;SDS011;2592;48.140;7.614;2023-04-08T08:05:12;14.67;;;10.50;;
5147;SDS011;2592;48.140;7.614;2023-04-08T08:07:38;14.57;;;11.93;;
5147;SDS011;2592;48.140;7.614;2023-04-08T08:10:05;15.07;;;12.53;;
5147;SDS011;2592;48.140;7.614;2023-04-08T08:12:31;12.73;;;10.90;;
5147;SDS011;2592;48.140;7.614;2023-04-08T08:14:58;15.23;;;12.43;;
5147;SDS011;2592;48.140;7.614;2023-04-08T08:17:26;17.17;;;13.83;;
5147;SDS011;2592;48.140;7.614;2023-04-08T08:19:54;16.10;;;12.87;;
5147;SDS011;2592;48.140;7.614;2023-04-08T08:22:20;16.50;;;11.83;;
5147;SDS011;2592;48.140;7.614;2023-04-08T08:24:47;17.30;;;13.00;;
5147;SDS011;2592;48.140;7.614;2023-04-08T08:27:13;20.77;;;17.33;;
5147;SDS011;2592;48.140;7.614;2023-04-08T08:29:40;22.20;;;17.53;;
5147;SDS011;2592;48.140;7.614;2023-04-08T08:32:06;22.93;;;17.33;;
5147;SDS011;2592;48.140;7.614;2023-04-08T08:34:34;16.20;;;13.10;;
5147;SDS011;2592;48.140;7.614;2023-04-08T08:37:00;19.00;;;14.10;;
5147;SDS011;2592;48.140;7.614;2023-04-08T08:39:26;19.50;;;16.33;;
5147;SDS011;2592;48.140;7.614;2023-04-08T08:41:53;22.10;;;15.70;;
5147;SDS011;2592;48.140;7.614;2023-04-08T08:44:20;20.87;;;16.90;;
5147;SDS011;2592;48.140;7.614;2023-04-08T08:46:47;19.50;;;14.30;;
5147;SDS011;2592;48.140;7.614;2023-04-08T08:49:14;18.27;;;14.60;;
5147;SDS011;2592;48.140;7.614;2023-04-08T08:51:42;20.83;;;14.60;;
5147;SDS011;2592;48.140;7.614;2023-04-08T08:54:10;19.40;;;14.00;;
5147;SDS011;2592;48.140;7.614;2023-04-08T08:56:37;20.33;;;16.87;;
5147;SDS011;2592;48.140;7.614;2023-04-08T08:59:03;26.97;;;21.27;;
5147;SDS011;2592;48.140;7.614;2023-04-08T09:01:31;18.90;;;14.60;;
5147;SDS011;2592;48.140;7.614;2023-04-08T09:04:05;16.77;;;13.03;;
5147;SDS011;2592;48.140;7.614;2023-04-08T09:06:32;17.93;;;13.30;;
5147;SDS011;2592;48.140;7.614;2023-04-08T09:08:59;20.63;;;13.57;;
5147;SDS011;2592;48.140;7.614;2023-04-08T09:11:26;16.10;;;13.40;;
5147;SDS011;2592;48.140;7.614;2023-04-08T09:13:53;15.17;;;12.37;;
5147;SDS011;2592;48.140;7.614;2023-04-08T09:16:20;18.20;;;13.47;;
5147;SDS011;2592;48.140;7.614;2023-04-08T09:18:47;18.47;;;13.57;;
5147;SDS011;2592;48.140;7.614;2023-04-08T09:21:14;19.27;;;14.70;;
5147;SDS011;2592;48.140;7.614;2023-04-08T09:23:42;19.23;;;13.20;;
5147;SDS011;2592;48.140;7.614;2023-04-08T09:26:10;14.97;;;12.23;;
5147;SDS011;2592;48.140;7.614;2023-04-08T09:28:37;17.33;;;13.70;;
5147;SDS011;2592;48.140;7.614;2023-04-08T09:31:20;14.83;;;12.40;;
5147;SDS011;2592;48.140;7.614;2023-04-08T09:33:46;18.37;;;14.00;;
5147;SDS011;2592;48.140;7.614;2023-04-08T09:36:13;19.00;;;13.27;;
5147;SDS011;2592;48.140;7.614;2023-04-08T09:38:39;19.80;;;14.67;;
5147;SDS011;2592;48.140;7.614;2023-04-08T09:41:06;17.47;;;13.60;;
5147;SDS011;2592;48.140;7.614;2023-04-08T09:43:35;15.60;;;12.60;;
5147;SDS011;2592;48.140;7.614;2023-04-08T09:46:01;20.30;;;13.67;;
5147;SDS011;2592;48.140;7.614;2023-04-08T09:48:32;21.33;;;13.53;;
5147;SDS011;2592;48.140;7.614;2023-04-08T09:51:04;17.73;;;15.00;;
5147;SDS011;2592;48.140;7.614;2023-04-08T09:53:33;20.20;;;14.30;;
5147;SDS011;2592;48.140;7.614;2023-04-08T09:56:00;18.73;;;14.10;;
5147;SDS011;2592;48.140;7.614;2023-04-08T09:58:27;20.93;;;13.50;;
5147;SDS011;2592;48.140;7.614;2023-04-08T10:00:55;20.30;;;14.73;;
5147;SDS011;2592;48.140;7.614;2023-04-08T10:03:25;15.10;;;13.03;;
5147;SDS011;2592;48.140;7.614;2023-04-08T10:05:52;18.60;;;15.50;;
5147;SDS011;2592;48.140;7.614;2023-04-08T10:08:20;17.27;;;14.60;;
5147;SDS011;2592;48.140;7.614;2023-04-08T10:10:47;19.33;;;14.73;;
5147;SDS011;2592;48.140;7.614;2023-04-08T10:13:13;21.33;;;15.30;;
5147;SDS011;2592;48.140;7.614;2023-04-08T10:15:40;17.37;;;13.77;;
5147;SDS011;2592;48.140;7.614;2023-04-08T10:20:53;18.83;;;15.03;;
5147;SDS011;2592;48.140;7.614;2023-04-08T10:23:19;19.87;;;13.73;;
5147;SDS011;2592;48.140;7.614;2023-04-08T10:26:06;16.27;;;14.20;;
5147;SDS011;2592;48.140;7.614;2023-04-08T10:28:52;16.50;;;13.97;;
5147;SDS011;2592;48.140;7.614;2023-04-08T10:31:20;17.90;;;15.80;;
5147;SDS011;2592;48.140;7.614;2023-04-08T10:33:47;17.53;;;14.90;;
5147;SDS011;2592;48.140;7.614;2023-04-08T10:36:15;20.17;;;14.70;;
5147;SDS011;2592;48.140;7.614;2023-04-08T10:38:41;17.03;;;13.77;;
5147;SDS011;2592;48.140;7.614;2023-04-08T10:41:09;18.50;;;14.80;;
5147;SDS011;2592;48.140;7.614;2023-04-08T10:43:35;17.20;;;14.40;;
5147;SDS011;2592;48.140;7.614;2023-04-08T10:46:02;20.00;;;13.80;;
5147;SDS011;2592;48.140;7.614;2023-04-08T10:48:29;15.50;;;13.00;;
5147;SDS011;2592;48.140;7.614;2023-04-08T10:50:56;19.67;;;14.07;;
5147;SDS011;2592;48.140;7.614;2023-04-08T10:53:24;21.40;;;17.37;;
5147;SDS011;2592;48.140;7.614;2023-04-08T10:55:51;16.80;;;14.47;;
5147;SDS011;2592;48.140;7.614;2023-04-08T10:58:17;22.97;;;17.73;;
5147;SDS011;2592;48.140;7.614;2023-04-08T11:00:44;24.30;;;16.00;;
5147;SDS011;2592;48.140;7.614;2023-04-08T11:03:11;14.80;;;11.70;;
5147;SDS011;2592;48.140;7.614;2023-04-08T11:05:37;13.20;;;11.43;;
5147;SDS011;2592;48.140;7.614;2023-04-08T11:08:04;15.00;;;12.00;;
5147;SDS011;2592;48.140;7.614;2023-04-08T11:10:34;13.50;;;11.50;;
5147;SDS011;2592;48.140;7.614;2023-04-08T11:13:01;17.83;;;12.00;;
5147;SDS011;2592;48.140;7.614;2023-04-08T11:15:29;15.47;;;11.70;;
5147;SDS011;2592;48.140;7.614;2023-04-08T11:17:56;11.50;;;10.30;;
5147;SDS011;2592;48.140;7.614;2023-04-08T11:20:23;11.93;;;10.43;;
5147;SDS011;2592;48.140;7.614;2023-04-08T11:22:50;12.47;;;11.00;;
5147;SDS011;2592;48.140;7.614;2023-04-08T11:25:17;11.93;;;9.90;;
5147;SDS011;2592;48.140;7.614;2023-04-08T11:27:44;11.20;;;10.00;;
5147;SDS011;2592;48.140;7.614;2023-04-08T11:30:11;15.30;;;11.23;;
5147;SDS011;2592;48.140;7.614;2023-04-08T11:32:38;11.20;;;9.50;;
5147;SDS011;2592;48.140;7.614;2023-04-08T11:35:05;13.53;;;9.80;;
5147;SDS011;2592;48.140;7.614;2023-04-08T11:37:35;17.63;;;10.53;;
5147;SDS011;2592;48.140;7.614;2023-04-08T11:40:05;15.07;;;11.50;;
5147;SDS011;2592;48.140;7.614;2023-04-08T11:42:31;14.37;;;10.30;;
5147;SDS011;2592;48.140;7.614;2023-04-08T11:44:59;12.73;;;11.43;;
5147;SDS011;2592;48.140;7.614;2023-04-08T11:47:29;12.13;;;9.93;;
5147;SDS011;2592;48.140;7.614;2023-04-08T11:49:56;13.10;;;11.20;;
5147;SDS011;2592;48.140;7.614;2023-04-08T11:52:22;15.23;;;12.00;;
5147;SDS011;2592;48.140;7.614;2023-04-08T11:55:05;14.67;;;13.00;;
5147;SDS011;2592;48.140;7.614;2023-04-08T11:57:32;17.63;;;13.43;;
5147;SDS011;2592;48.140;7.614;2023-04-08T11:59:59;13.33;;;11.63;;
5147;SDS011;2592;48.140;7.614;2023-04-08T12:02:26;14.70;;;12.13;;
5147;SDS011;2592;48.140;7.614;2023-04-08T12:04:52;14.50;;;13.00;;
5147;SDS011;2592;48.140;7.614;2023-04-08T12:07:19;12.40;;;10.07;;
5147;SDS011;2592;48.140;7.614;2023-04-08T12:09:45;20.00;;;14.00;;
5147;SDS011;2592;48.140;7.614;2023-04-08T12:12:11;20.10;;;15.90;;
5147;SDS011;2592;48.140;7.614;2023-04-08T12:14:38;16.93;;;11.23;;
5147;SDS011;2592;48.140;7.614;2023-04-08T12:17:05;16.50;;;11.27;;
5147;SDS011;2592;48.140;7.614;2023-04-08T12:19:32;13.77;;;12.10;;
5147;SDS011;2592;48.140;7.614;2023-04-08T12:21:58;13.50;;;12.10;;
5147;SDS011;2592;48.140;7.614;2023-04-08T12:24:25;11.03;;;9.70;;
5147;SDS011;2592;48.140;7.614;2023-04-08T12:26:51;13.80;;;11.47;;
5147;SDS011;2592;48.140;7.614;2023-04-08T12:29:18;18.00;;;10.00;;
5147;SDS011;2592;48.140;7.614;2023-04-08T12:31:44;12.30;;;9.27;;
5147;SDS011;2592;48.140;7.614;2023-04-08T12:34:12;11.40;;;8.90;;
5147;SDS011;2592;48.140;7.614;2023-04-08T12:36:39;9.93;;;8.67;;
5147;SDS011;2592;48.140;7.614;2023-04-08T12:39:05;9.77;;;8.63;;
5147;SDS011;2592;48.140;7.614;2023-04-08T12:41:32;9.73;;;8.37;;
5147;SDS011;2592;48.140;7.614;2023-04-08T12:43:58;10.33;;;8.00;;
5147;SDS011;2592;48.140;7.614;2023-04-08T12:46:25;10.57;;;9.13;;
5147;SDS011;2592;48.140;7.614;2023-04-08T12:48:52;10.60;;;9.53;;
5147;SDS011;2592;48.140;7.614;2023-04-08T12:51:20;10.30;;;9.30;;
5147;SDS011;2592;48.140;7.614;2023-04-08T12:53:46;11.03;;;9.03;;
5147;SDS011;2592;48.140;7.614;2023-04-08T12:56:13;10.00;;;8.67;;
5147;SDS011;2592;48.140;7.614;2023-04-08T12:58:39;11.20;;;8.90;;
5147;SDS011;2592;48.140;7.614;2023-04-08T13:01:05;12.33;;;9.93;;
5147;SDS011;2592;48.140;7.614;2023-04-08T13:03:32;11.17;;;9.60;;
5147;SDS011;2592;48.140;7.614;2023-04-08T13:06:00;11.97;;;10.40;;
5147;SDS011;2592;48.140;7.614;2023-04-08T13:08:27;15.30;;;12.13;;
5147;SDS011;2592;48.140;7.614;2023-04-08T13:10:54;12.50;;;10.47;;
5147;SDS011;2592;48.140;7.614;2023-04-08T13:13:20;15.17;;;10.30;;
5147;SDS011;2592;48.140;7.614;2023-04-08T13:15:46;14.03;;;10.70;;
5147;SDS011;2592;48.140;7.614;2023-04-08T13:18:13;13.03;;;9.83;;
5147;SDS011;2592;48.140;7.614;2023-04-08T13:20:39;14.73;;;10.63;;
5147;SDS011;2592;48.140;7.614;2023-04-08T13:23:06;13.10;;;9.40;;
5147;SDS011;2592;48.140;7.614;2023-04-08T13:25:34;12.93;;;11.53;;
5147;SDS011;2592;48.140;7.614;2023-04-08T13:28:00;12.10;;;10.53;;
5147;SDS011;2592;48.140;7.614;2023-04-08T13:30:26;11.20;;;9.97;;
5147;SDS011;2592;48.140;7.614;2023-04-08T13:32:53;13.73;;;11.17;;
5147;SDS011;2592;48.140;7.614;2023-04-08T13:35:19;11.17;;;9.87;;
5147;SDS011;2592;48.140;7.614;2023-04-08T13:37:46;12.37;;;10.03;;
5147;SDS011;2592;48.140;7.614;2023-04-08T13:40:12;15.93;;;11.80;;
5147;SDS011;2592;48.140;7.614;2023-04-08T13:42:40;14.47;;;11.70;;
5147;SDS011;2592;48.140;7.614;2023-04-08T13:45:07;13.60;;;10.20;;
5147;SDS011;2592;48.140;7.614;2023-04-08T13:47:33;11.50;;;10.23;;
5147;SDS011;2592;48.140;7.614;2023-04-08T13:50:00;12.27;;;10.43;;
5147;SDS011;2592;48.140;7.614;2023-04-08T13:52:26;12.67;;;10.50;;
5147;SDS011;2592;48.140;7.614;2023-04-08T13:54:52;12.60;;;10.23;;
5147;SDS011;2592;48.140;7.614;2023-04-08T13:57:19;12.57;;;9.87;;
5147;SDS011;2592;48.140;7.614;2023-04-08T13:59:47;14.23;;;11.63;;
5147;SDS011;2592;48.140;7.614;2023-04-08T14:02:13;11.53;;;9.70;;
5147;SDS011;2592;48.140;7.614;2023-04-08T14:04:39;11.90;;;10.03;;
5147;SDS011;2592;48.140;7.614;2023-04-08T14:07:06;13.60;;;10.63;;
5147;SDS011;2592;48.140;7.614;2023-04-08T14:09:33;12.17;;;9.70;;
5147;SDS011;2592;48.140;7.614;2023-04-08T14:12:00;14.23;;;9.37;;
5147;SDS011;2592;48.140;7.614;2023-04-08T14:14:26;12.27;;;9.90;;
5147;SDS011;2592;48.140;7.614;2023-04-08T14:16:54;10.73;;;9.60;;
5147;SDS011;2592;48.140;7.614;2023-04-08T14:19:20;10.70;;;9.60;;
5147;SDS011;2592;48.140;7.614;2023-04-08T14:21:46;10.73;;;8.70;;
5147;SDS011;2592;48.140;7.614;2023-04-08T14:24:13;10.50;;;9.33;;
5147;SDS011;2592;48.140;7.614;2023-04-08T14:26:39;13.20;;;9.30;;
5147;SDS011;2592;48.140;7.614;2023-04-08T14:29:06;11.10;;;9.90;;
5147;SDS011;2592;48.140;7.614;2023-04-08T14:31:32;14.13;;;10.33;;
5147;SDS011;2592;48.140;7.614;2023-04-08T14:34:01;10.50;;;9.37;;
5147;SDS011;2592;48.140;7.614;2023-04-08T14:36:28;11.20;;;9.70;;
5147;SDS011;2592;48.140;7.614;2023-04-08T14:38:55;10.53;;;8.83;;
5147;SDS011;2592;48.140;7.614;2023-04-08T14:41:21;16.03;;;8.80;;
5147;SDS011;2592;48.140;7.614;2023-04-08T14:43:50;10.87;;;9.70;;
5147;SDS011;2592;48.140;7.614;2023-04-08T14:46:16;11.10;;;9.90;;
5147;SDS011;2592;48.140;7.614;2023-04-08T14:48:43;15.23;;;9.47;;
5147;SDS011;2592;48.140;7.614;2023-04-08T14:51:10;10.67;;;9.33;;
5147;SDS011;2592;48.140;7.614;2023-04-08T14:53:37;11.73;;;9.10;;
5147;SDS011;2592;48.140;7.614;2023-04-08T14:56:04;12.70;;;11.10;;
5147;SDS011;2592;48.140;7.614;2023-04-08T14:58:32;10.30;;;9.20;;
5147;SDS011;2592;48.140;7.614;2023-04-08T15:00:58;12.10;;;10.37;;